sensor_id;sensor_type;location;lat;lon;timestamp;P1;durP1;ratioP1;P2;durP2;ratioP2
69744;SDS011;57015;50.120;-5.168;2023-05-10T00:00:21;15.70;;;1.83;;
69744;SDS011;57015;50.120;-5.168;2023-05-10T00:02:48;16.25;;;1.77;;
69744;SDS011;57015;50.120;-5.168;2023-05-10T00:05:14;14.00;;;2.30;;
69744;SDS011;57015;50.120;-5.168;2023-05-10T00:07:39;13.48;;;1.67;;
69744;SDS011;57015;50.120;-5.168;2023-05-10T00:10:05;13.77;;;2.87;;
69744;SDS011;57015;50.120;-5.168;2023-05-10T00:12:31;19.10;;;2.05;;
69744;SDS011;57015;50.120;-5.168;2023-05-10T00:14:56;14.47;;;2.07;;
69744;SDS011;57015;50.120;-5.168;2023-05-10T00:17:22;15.93;;;1.57;;
69744;SDS011;57015;50.120;-5.168;2023-05-10T00:19:47;13.90;;;1.90;;
69744;SDS011;57015;50.120;-5.168;2023-05-10T00:22:13;17.35;;;1.52;;
69744;SDS011;57015;50.120;-5.168;2023-05-10T00:24:38;15.37;;;1.53;;
69744;SDS011;57015;50.120;-5.168;2023-05-10T00:27:04;10.23;;;1.40;;
69744;SDS011;57015;50.120;-5.168;2023-05-10T00:29:29;14.63;;;2.50;;
69744;SDS011;57015;50.120;-5.168;2023-05-10T00:31:54;9.63;;;1.55;;
69744;SDS011;57015;50.120;-5.168;2023-05-10T00:34:20;18.67;;;2.08;;
69744;SDS011;57015;50.120;-5.168;2023-05-10T00:36:45;13.20;;;1.60;;
69744;SDS011;57015;50.120;-5.168;2023-05-10T00:39:11;16.80;;;1.70;;
69744;SDS011;57015;50.120;-5.168;2023-05-10T00:41:37;16.58;;;2.13;;
69744;SDS011;57015;50.120;-5.168;2023-05-10T00:44:02;14.33;;;1.30;;
69744;SDS011;57015;50.120;-5.168;2023-05-10T00:46:29;10.88;;;1.30;;
69744;SDS011;57015;50.120;-5.168;2023-05-10T00:48:54;9.37;;;1.00;;
69744;SDS011;57015;50.120;-5.168;2023-05-10T00:51:20;12.50;;;1.37;;
69744;SDS011;57015;50.120;-5.168;2023-05-10T00:53:45;14.40;;;1.80;;
69744;SDS011;57015;50.120;-5.168;2023-05-10T00:56:11;13.10;;;1.50;;
69744;SDS011;57015;50.120;-5.168;2023-05-10T00:58:37;10.52;;;1.30;;
69744;SDS011;57015;50.120;-5.168;2023-05-10T01:01:03;10.23;;;2.22;;
69744;SDS011;57015;50.120;-5.168;2023-05-10T01:03:29;17.30;;;1.50;;
69744;SDS011;57015;50.120;-5.168;2023-05-10T01:05:54;12.55;;;1.95;;
69744;SDS011;57015;50.120;-5.168;2023-05-10T01:08:20;15.13;;;2.00;;
69744;SDS011;57015;50.120;-5.168;2023-05-10T01:10:45;14.73;;;2.00;;
69744;SDS011;57015;50.120;-5.168;2023-05-10T01:13:13;9.57;;;1.40;;
69744;SDS011;57015;50.120;-5.168;2023-05-10T01:15:44;15.45;;;1.73;;
69744;SDS011;57015;50.120;-5.168;2023-05-10T01:18:11;15.93;;;2.00;;
69744;SDS011;57015;50.120;-5.168;2023-05-10T01:20:39;7.88;;;1.60;;
69744;SDS011;57015;50.120;-5.168;2023-05-10T01:26:12;16.85;;;1.63;;
69744;SDS011;57015;50.120;-5.168;2023-05-10T01:28:46;13.00;;;1.52;;
69744;SDS011;57015;50.120;-5.168;2023-05-10T01:34:02;9.68;;;1.25;;
69744;SDS011;57015;50.120;-5.168;2023-05-10T01:36:35;15.00;;;2.20;;
69744;SDS011;57015;50.120;-5.168;2023-05-10T01:42:21;12.38;;;1.58;;
69744;SDS011;57015;50.120;-5.168;2023-05-10T01:44:54;11.93;;;1.70;;
69744;SDS011;57015;50.120;-5.168;2023-05-10T01:47:37;13.52;;;1.50;;
69744;SDS011;57015;50.120;-5.168;2023-05-10T01:50:04;10.00;;;1.30;;
69744;SDS011;57015;50.120;-5.168;2023-05-10T01:52:33;10.52;;;1.05;;
69744;SDS011;57015;50.120;-5.168;2023-05-10T01:55:04;11.43;;;1.75;;
69744;SDS011;57015;50.120;-5.168;2023-05-10T01:57:33;12.95;;;2.03;;
69744;SDS011;57015;50.120;-5.168;2023-05-10T02:00:01;16.70;;;2.38;;
69744;SDS011;57015;50.120;-5.168;2023-05-10T02:02:28;8.97;;;1.60;;
69744;SDS011;57015;50.120;-5.168;2023-05-10T02:04:55;11.85;;;2.83;;
69744;SDS011;57015;50.120;-5.168;2023-05-10T02:07:22;12.55;;;1.65;;
69744;SDS011;57015;50.120;-5.168;2023-05-10T02:09:48;7.40;;;1.30;;
69744;SDS011;57015;50.120;-5.168;2023-05-10T02:12:13;13.90;;;3.30;;
69744;SDS011;57015;50.120;-5.168;2023-05-10T02:14:39;8.23;;;1.10;;
69744;SDS011;57015;50.120;-5.168;2023-05-10T02:17:06;11.00;;;1.33;;
69744;SDS011;57015;50.120;-5.168;2023-05-10T02:19:34;12.23;;;1.47;;
69744;SDS011;57015;50.120;-5.168;2023-05-10T02:22:02;10.90;;;1.40;;
69744;SDS011;57015;50.120;-5.168;2023-05-10T02:24:28;15.73;;;2.15;;
69744;SDS011;57015;50.120;-5.168;2023-05-10T02:26:53;12.32;;;1.48;;
69744;SDS011;57015;50.120;-5.168;2023-05-10T02:29:20;21.50;;;1.77;;
69744;SDS011;57015;50.120;-5.168;2023-05-10T02:31:48;11.27;;;1.20;;
69744;SDS011;57015;50.120;-5.168;2023-05-10T02:34:15;12.77;;;2.28;;
69744;SDS011;57015;50.120;-5.168;2023-05-10T02:36:41;11.67;;;2.70;;
69744;SDS011;57015;50.120;-5.168;2023-05-10T02:39:06;14.00;;;2.17;;
69744;SDS011;57015;50.120;-5.168;2023-05-10T02:41:37;12.90;;;1.27;;
69744;SDS011;57015;50.120;-5.168;2023-05-10T02:44:06;12.68;;;2.33;;
69744;SDS011;57015;50.120;-5.168;2023-05-10T02:46:33;13.35;;;1.80;;
69744;SDS011;57015;50.120;-5.168;2023-05-10T02:48:58;16.80;;;2.03;;
69744;SDS011;57015;50.120;-5.168;2023-05-10T02:51:24;9.68;;;1.40;;
69744;SDS011;57015;50.120;-5.168;2023-05-10T02:53:53;9.25;;;1.40;;
69744;SDS011;57015;50.120;-5.168;2023-05-10T02:56:29;11.10;;;1.33;;
69744;SDS011;57015;50.120;-5.168;2023-05-10T02:58:57;7.18;;;1.00;;
69744;SDS011;57015;50.120;-5.168;2023-05-10T03:01:22;6.83;;;1.00;;
69744;SDS011;57015;50.120;-5.168;2023-05-10T03:03:48;11.63;;;1.75;;
69744;SDS011;57015;50.120;-5.168;2023-05-10T03:06:14;8.20;;;1.30;;
69744;SDS011;57015;50.120;-5.168;2023-05-10T03:08:39;6.53;;;1.08;;
69744;SDS011;57015;50.120;-5.168;2023-05-10T03:11:09;9.45;;;0.85;;
69744;SDS011;57015;50.120;-5.168;2023-05-10T03:13:49;12.00;;;2.23;;
69744;SDS011;57015;50.120;-5.168;2023-05-10T03:16:27;11.13;;;1.50;;
69744;SDS011;57015;50.120;-5.168;2023-05-10T03:18:56;8.45;;;0.93;;
69744;SDS011;57015;50.120;-5.168;2023-05-10T03:21:28;11.32;;;0.95;;
69744;SDS011;57015;50.120;-5.168;2023-05-10T03:23:57;14.50;;;1.52;;
69744;SDS011;57015;50.120;-5.168;2023-05-10T03:26:26;9.63;;;0.97;;
69744;SDS011;57015;50.120;-5.168;2023-05-10T03:28:52;13.73;;;1.92;;
69744;SDS011;57015;50.120;-5.168;2023-05-10T03:31:18;12.05;;;2.08;;
69744;SDS011;57015;50.120;-5.168;2023-05-10T03:33:50;15.10;;;1.73;;
69744;SDS011;57015;50.120;-5.168;2023-05-10T03:36:17;13.73;;;1.52;;
69744;SDS011;57015;50.120;-5.168;2023-05-10T03:38:42;9.82;;;1.17;;
69744;SDS011;57015;50.120;-5.168;2023-05-10T03:41:08;6.07;;;1.23;;
69744;SDS011;57015;50.120;-5.168;2023-05-10T03:43:36;9.40;;;1.30;;
69744;SDS011;57015;50.120;-5.168;2023-05-10T03:46:05;12.02;;;1.38;;
69744;SDS011;57015;50.120;-5.168;2023-05-10T03:48:31;12.63;;;1.20;;
69744;SDS011;57015;50.120;-5.168;2023-05-10T03:50:57;8.48;;;1.30;;
69744;SDS011;57015;50.120;-5.168;2023-05-10T03:53:22;11.13;;;1.53;;
69744;SDS011;57015;50.120;-5.168;2023-05-10T03:55:48;8.10;;;1.13;;
69744;SDS011;57015;50.120;-5.168;2023-05-10T03:58:13;9.98;;;1.40;;
69744;SDS011;57015;50.120;-5.168;2023-05-10T04:00:39;13.60;;;1.43;;
69744;SDS011;57015;50.120;-5.168;2023-05-10T04:03:08;9.50;;;0.85;;
69744;SDS011;57015;50.120;-5.168;2023-05-10T04:05:34;12.67;;;1.70;;
69744;SDS011;57015;50.120;-5.168;2023-05-10T04:08:00;10.63;;;1.17;;
69744;SDS011;57015;50.120;-5.168;2023-05-10T04:10:25;11.77;;;0.90;;
69744;SDS011;57015;50.120;-5.168;2023-05-10T04:12:51;14.27;;;1.60;;
69744;SDS011;57015;50.120;-5.168;2023-05-10T04:15:16;15.63;;;1.73;;
69744;SDS011;57015;50.120;-5.168;2023-05-10T04:17:42;7.70;;;0.98;;
69744;SDS011;57015;50.120;-5.168;2023-05-10T04:20:07;8.93;;;0.80;;
69744;SDS011;57015;50.120;-5.168;2023-05-10T04:22:33;9.15;;;0.98;;
69744;SDS011;57015;50.120;-5.168;2023-05-10T04:24:58;9.45;;;1.10;;
69744;SDS011;57015;50.120;-5.168;2023-05-10T04:27:24;7.03;;;1.10;;
69744;SDS011;57015;50.120;-5.168;2023-05-10T04:29:49;6.40;;;0.90;;
69744;SDS011;57015;50.120;-5.168;2023-05-10T04:32:15;11.52;;;1.23;;
69744;SDS011;57015;50.120;-5.168;2023-05-10T04:34:42;11.27;;;1.20;;
69744;SDS011;57015;50.120;-5.168;2023-05-10T04:37:08;9.93;;;1.10;;
69744;SDS011;57015;50.120;-5.168;2023-05-10T04:39:33;12.65;;;1.77;;
69744;SDS011;57015;50.120;-5.168;2023-05-10T04:42:00;6.00;;;0.80;;
69744;SDS011;57015;50.120;-5.168;2023-05-10T04:44:25;7.50;;;1.10;;
69744;SDS011;57015;50.120;-5.168;2023-05-10T04:46:51;10.43;;;1.10;;
69744;SDS011;57015;50.120;-5.168;2023-05-10T04:49:16;6.07;;;0.93;;
69744;SDS011;57015;50.120;-5.168;2023-05-10T04:51:42;9.35;;;1.35;;
69744;SDS011;57015;50.120;-5.168;2023-05-10T04:54:08;10.03;;;0.90;;
69744;SDS011;57015;50.120;-5.168;2023-05-10T04:56:33;12.97;;;1.37;;
69744;SDS011;57015;50.120;-5.168;2023-05-10T04:58:59;11.77;;;1.37;;
69744;SDS011;57015;50.120;-5.168;2023-05-10T05:01:24;6.23;;;1.00;;
69744;SDS011;57015;50.120;-5.168;2023-05-10T05:03:49;13.52;;;1.55;;
69744;SDS011;57015;50.120;-5.168;2023-05-10T05:06:15;7.43;;;1.03;;
69744;SDS011;57015;50.120;-5.168;2023-05-10T05:08:40;14.90;;;1.53;;
69744;SDS011;57015;50.120;-5.168;2023-05-10T05:11:06;7.53;;;1.03;;
69744;SDS011;57015;50.120;-5.168;2023-05-10T05:13:31;7.30;;;0.82;;
69744;SDS011;57015;50.120;-5.168;2023-05-10T05:15:57;8.00;;;1.33;;
69744;SDS011;57015;50.120;-5.168;2023-05-10T05:18:22;7.97;;;1.20;;
69744;SDS011;57015;50.120;-5.168;2023-05-10T05:20:47;9.57;;;1.20;;
69744;SDS011;57015;50.120;-5.168;2023-05-10T05:23:13;7.83;;;1.00;;
69744;SDS011;57015;50.120;-5.168;2023-05-10T05:25:38;7.23;;;0.97;;
69744;SDS011;57015;50.120;-5.168;2023-05-10T05:28:03;6.90;;;1.10;;
69744;SDS011;57015;50.120;-5.168;2023-05-10T05:30:29;8.00;;;1.05;;
69744;SDS011;57015;50.120;-5.168;2023-05-10T05:32:54;9.03;;;1.10;;
69744;SDS011;57015;50.120;-5.168;2023-05-10T05:35:20;15.63;;;1.53;;
69744;SDS011;57015;50.120;-5.168;2023-05-10T05:37:45;9.83;;;1.13;;
69744;SDS011;57015;50.120;-5.168;2023-05-10T05:40:14;10.17;;;0.97;;
69744;SDS011;57015;50.120;-5.168;2023-05-10T05:42:39;14.90;;;1.27;;
69744;SDS011;57015;50.120;-5.168;2023-05-10T05:45:05;10.80;;;1.02;;
69744;SDS011;57015;50.120;-5.168;2023-05-10T05:47:31;10.95;;;1.60;;
69744;SDS011;57015;50.120;-5.168;2023-05-10T05:49:56;11.73;;;1.53;;
69744;SDS011;57015;50.120;-5.168;2023-05-10T05:52:22;10.40;;;1.25;;
69744;SDS011;57015;50.120;-5.168;2023-05-10T05:54:47;7.50;;;1.08;;
69744;SDS011;57015;50.120;-5.168;2023-05-10T05:57:13;7.77;;;0.90;;
69744;SDS011;57015;50.120;-5.168;2023-05-10T05:59:38;13.53;;;1.43;;
69744;SDS011;57015;50.120;-5.168;2023-05-10T06:02:08;17.60;;;1.33;;
69744;SDS011;57015;50.120;-5.168;2023-05-10T06:04:34;16.33;;;1.50;;
69744;SDS011;57015;50.120;-5.168;2023-05-10T06:06:59;12.53;;;1.50;;
69744;SDS011;57015;50.120;-5.168;2023-05-10T06:09:25;16.40;;;2.00;;
69744;SDS011;57015;50.120;-5.168;2023-05-10T06:11:50;8.40;;;1.27;;
69744;SDS011;57015;50.120;-5.168;2023-05-10T06:14:16;9.80;;;1.00;;
69744;SDS011;57015;50.120;-5.168;2023-05-10T06:16:41;11.33;;;1.20;;
69744;SDS011;57015;50.120;-5.168;2023-05-10T06:19:06;12.30;;;1.52;;
69744;SDS011;57015;50.120;-5.168;2023-05-10T06:21:32;9.43;;;1.52;;
69744;SDS011;57015;50.120;-5.168;2023-05-10T06:23:57;14.80;;;1.30;;
69744;SDS011;57015;50.120;-5.168;2023-05-10T06:26:22;13.37;;;1.70;;
69744;SDS011;57015;50.120;-5.168;2023-05-10T06:28:48;11.53;;;0.97;;
69744;SDS011;57015;50.120;-5.168;2023-05-10T06:31:13;14.87;;;2.33;;
69744;SDS011;57015;50.120;-5.168;2023-05-10T06:33:38;11.60;;;0.80;;
69744;SDS011;57015;50.120;-5.168;2023-05-10T06:36:04;11.53;;;1.20;;
69744;SDS011;57015;50.120;-5.168;2023-05-10T06:38:29;8.55;;;1.20;;
69744;SDS011;57015;50.120;-5.168;2023-05-10T06:40:55;11.37;;;1.20;;
69744;SDS011;57015;50.120;-5.168;2023-05-10T06:43:20;9.07;;;1.17;;
69744;SDS011;57015;50.120;-5.168;2023-05-10T06:45:46;14.07;;;1.40;;
69744;SDS011;57015;50.120;-5.168;2023-05-10T06:48:11;13.07;;;1.17;;
69744;SDS011;57015;50.120;-5.168;2023-05-10T06:50:36;9.10;;;1.47;;
69744;SDS011;57015;50.120;-5.168;2023-05-10T06:53:02;10.82;;;1.25;;
69744;SDS011;57015;50.120;-5.168;2023-05-10T06:55:27;11.70;;;1.42;;
69744;SDS011;57015;50.120;-5.168;2023-05-10T06:57:53;11.30;;;1.00;;
69744;SDS011;57015;50.120;-5.168;2023-05-10T07:00:19;10.32;;;1.00;;
69744;SDS011;57015;50.120;-5.168;2023-05-10T07:02:44;10.77;;;1.97;;
69744;SDS011;57015;50.120;-5.168;2023-05-10T07:05:10;10.27;;;0.80;;
69744;SDS011;57015;50.120;-5.168;2023-05-10T07:07:35;8.67;;;1.00;;
69744;SDS011;57015;50.120;-5.168;2023-05-10T07:10:01;13.77;;;0.87;;
69744;SDS011;57015;50.120;-5.168;2023-05-10T07:12:27;9.38;;;1.20;;
69744;SDS011;57015;50.120;-5.168;2023-05-10T07:14:52;8.97;;;0.80;;
69744;SDS011;57015;50.120;-5.168;2023-05-10T07:17:18;7.00;;;1.20;;
69744;SDS011;57015;50.120;-5.168;2023-05-10T07:19:43;7.83;;;1.20;;
69744;SDS011;57015;50.120;-5.168;2023-05-10T07:22:09;5.38;;;0.68;;
69744;SDS011;57015;50.120;-5.168;2023-05-10T07:24:34;25.33;;;1.67;;
69744;SDS011;57015;50.120;-5.168;2023-05-10T07:27:00;10.17;;;1.10;;
69744;SDS011;57015;50.120;-5.168;2023-05-10T07:29:25;13.13;;;1.87;;
69744;SDS011;57015;50.120;-5.168;2023-05-10T07:31:51;8.50;;;1.23;;
69744;SDS011;57015;50.120;-5.168;2023-05-10T07:34:16;13.77;;;1.42;;
69744;SDS011;57015;50.120;-5.168;2023-05-10T07:36:41;7.93;;;1.20;;
69744;SDS011;57015;50.120;-5.168;2023-05-10T07:39:07;12.03;;;1.10;;
69744;SDS011;57015;50.120;-5.168;2023-05-10T07:41:32;9.37;;;1.23;;
69744;SDS011;57015;50.120;-5.168;2023-05-10T07:43:58;8.77;;;1.00;;
69744;SDS011;57015;50.120;-5.168;2023-05-10T07:46:23;9.70;;;1.13;;
69744;SDS011;57015;50.120;-5.168;2023-05-10T07:48:48;13.45;;;1.42;;
69744;SDS011;57015;50.120;-5.168;2023-05-10T07:51:14;12.70;;;1.30;;
69744;SDS011;57015;50.120;-5.168;2023-05-10T07:53:39;13.17;;;1.33;;
69744;SDS011;57015;50.120;-5.168;2023-05-10T07:58:46;12.75;;;1.23;;
69744;SDS011;57015;50.120;-5.168;2023-05-10T08:01:12;7.80;;;1.33;;
69744;SDS011;57015;50.120;-5.168;2023-05-10T08:03:37;14.03;;;2.50;;
69744;SDS011;57015;50.120;-5.168;2023-05-10T08:06:02;13.73;;;1.60;;
69744;SDS011;57015;50.120;-5.168;2023-05-10T08:08:28;14.45;;;1.30;;
69744;SDS011;57015;50.120;-5.168;2023-05-10T08:10:53;9.17;;;1.07;;
69744;SDS011;57015;50.120;-5.168;2023-05-10T08:13:19;10.43;;;1.33;;
69744;SDS011;57015;50.120;-5.168;2023-05-10T08:15:44;11.33;;;1.13;;
69744;SDS011;57015;50.120;-5.168;2023-05-10T08:18:09;9.07;;;0.60;;
69744;SDS011;57015;50.120;-5.168;2023-05-10T08:20:35;13.80;;;1.83;;
69744;SDS011;57015;50.120;-5.168;2023-05-10T08:23:00;8.20;;;0.90;;
69744;SDS011;57015;50.120;-5.168;2023-05-10T08:25:25;10.20;;;0.57;;
69744;SDS011;57015;50.120;-5.168;2023-05-10T08:27:51;8.95;;;0.77;;
69744;SDS011;57015;50.120;-5.168;2023-05-10T08:30:16;6.00;;;0.60;;
69744;SDS011;57015;50.120;-5.168;2023-05-10T08:32:42;6.57;;;0.90;;
69744;SDS011;57015;50.120;-5.168;2023-05-10T08:35:07;7.20;;;0.60;;
69744;SDS011;57015;50.120;-5.168;2023-05-10T08:37:33;9.35;;;0.75;;
69744;SDS011;57015;50.120;-5.168;2023-05-10T08:39:58;9.48;;;1.00;;
69744;SDS011;57015;50.120;-5.168;2023-05-10T08:42:23;10.53;;;1.57;;
69744;SDS011;57015;50.120;-5.168;2023-05-10T08:44:51;5.07;;;0.40;;
69744;SDS011;57015;50.120;-5.168;2023-05-10T08:47:17;5.97;;;0.63;;
69744;SDS011;57015;50.120;-5.168;2023-05-10T08:49:43;3.17;;;0.30;;
69744;SDS011;57015;50.120;-5.168;2023-05-10T08:52:09;3.00;;;0.40;;
69744;SDS011;57015;50.120;-5.168;2023-05-10T08:54:36;3.20;;;0.20;;
69744;SDS011;57015;50.120;-5.168;2023-05-10T08:57:01;2.80;;;0.50;;
69744;SDS011;57015;50.120;-5.168;2023-05-10T08:59:28;2.83;;;0.37;;
69744;SDS011;57015;50.120;-5.168;2023-05-10T09:01:53;5.13;;;0.68;;
69744;SDS011;57015;50.120;-5.168;2023-05-10T09:04:24;3.60;;;0.40;;
69744;SDS011;57015;50.120;-5.168;2023-05-10T09:06:50;2.80;;;0.30;;
69744;SDS011;57015;50.120;-5.168;2023-05-10T09:09:16;4.35;;;0.50;;
69744;SDS011;57015;50.120;-5.168;2023-05-10T09:11:42;4.27;;;0.23;;
69744;SDS011;57015;50.120;-5.168;2023-05-10T09:14:09;8.73;;;0.32;;
69744;SDS011;57015;50.120;-5.168;2023-05-10T09:16:34;3.40;;;0.20;;
69744;SDS011;57015;50.120;-5.168;2023-05-10T09:19:00;4.00;;;0.40;;
69744;SDS011;57015;50.120;-5.168;2023-05-10T09:21:25;3.57;;;0.73;;
69744;SDS011;57015;50.120;-5.168;2023-05-10T09:23:51;6.35;;;0.50;;
69744;SDS011;57015;50.120;-5.168;2023-05-10T09:26:21;5.45;;;0.57;;
69744;SDS011;57015;50.120;-5.168;2023-05-10T09:28:54;5.13;;;0.57;;
69744;SDS011;57015;50.120;-5.168;2023-05-10T09:31:21;4.05;;;0.32;;
69744;SDS011;57015;50.120;-5.168;2023-05-10T09:33:47;11.87;;;0.90;;
69744;SDS011;57015;50.120;-5.168;2023-05-10T09:36:13;6.18;;;0.77;;
69744;SDS011;57015;50.120;-5.168;2023-05-10T09:41:18;4.13;;;0.40;;
69744;SDS011;57015;50.120;-5.168;2023-05-10T09:43:45;6.50;;;0.40;;
69744;SDS011;57015;50.120;-5.168;2023-05-10T09:46:10;2.27;;;0.20;;
69744;SDS011;57015;50.120;-5.168;2023-05-10T09:48:44;7.43;;;0.73;;
69744;SDS011;57015;50.120;-5.168;2023-05-10T09:51:24;8.90;;;0.50;;
69744;SDS011;57015;50.120;-5.168;2023-05-10T09:56:39;4.10;;;0.30;;
69744;SDS011;57015;50.120;-5.168;2023-05-10T09:59:06;4.57;;;0.87;;
69744;SDS011;57015;50.120;-5.168;2023-05-10T10:01:33;3.75;;;0.60;;
69744;SDS011;57015;50.120;-5.168;2023-05-10T10:04:02;5.25;;;0.52;;
69744;SDS011;57015;50.120;-5.168;2023-05-10T10:06:29;8.40;;;0.88;;
69744;SDS011;57015;50.120;-5.168;2023-05-10T10:08:54;7.00;;;0.70;;
69744;SDS011;57015;50.120;-5.168;2023-05-10T10:11:21;4.60;;;0.47;;
69744;SDS011;57015;50.120;-5.168;2023-05-10T10:13:46;2.67;;;0.40;;
69744;SDS011;57015;50.120;-5.168;2023-05-10T10:16:12;5.57;;;0.80;;
69744;SDS011;57015;50.120;-5.168;2023-05-10T10:18:37;4.83;;;0.50;;
69744;SDS011;57015;50.120;-5.168;2023-05-10T10:21:06;4.47;;;0.77;;
69744;SDS011;57015;50.120;-5.168;2023-05-10T10:23:33;6.03;;;0.30;;
69744;SDS011;57015;50.120;-5.168;2023-05-10T10:25:59;7.00;;;0.40;;
69744;SDS011;57015;50.120;-5.168;2023-05-10T10:34:17;6.30;;;0.40;;
69744;SDS011;57015;50.120;-5.168;2023-05-10T10:36:50;4.77;;;0.43;;
69744;SDS011;57015;50.120;-5.168;2023-05-10T10:39:16;4.32;;;0.20;;
69744;SDS011;57015;50.120;-5.168;2023-05-10T10:41:50;6.03;;;0.52;;
69744;SDS011;57015;50.120;-5.168;2023-05-10T10:52:26;2.67;;;0.20;;
69744;SDS011;57015;50.120;-5.168;2023-05-10T10:57:26;1.98;;;0.10;;
69744;SDS011;57015;50.120;-5.168;2023-05-10T11:02:47;1.88;;;0.30;;
69744;SDS011;57015;50.120;-5.168;2023-05-10T11:05:33;4.23;;;0.50;;
69744;SDS011;57015;50.120;-5.168;2023-05-10T11:11:01;4.57;;;0.50;;
69744;SDS011;57015;50.120;-5.168;2023-05-10T11:15:55;4.25;;;0.43;;
69744;SDS011;57015;50.120;-5.168;2023-05-10T11:18:28;7.43;;;0.50;;
69744;SDS011;57015;50.120;-5.168;2023-05-10T11:23:21;4.32;;;0.60;;
69744;SDS011;57015;50.120;-5.168;2023-05-10T11:25:47;6.03;;;0.60;;
69744;SDS011;57015;50.120;-5.168;2023-05-10T11:28:14;6.32;;;0.50;;
69744;SDS011;57015;50.120;-5.168;2023-05-10T11:30:41;3.47;;;0.45;;
69744;SDS011;57015;50.120;-5.168;2023-05-10T11:33:09;2.80;;;0.38;;
69744;SDS011;57015;50.120;-5.168;2023-05-10T11:35:38;4.50;;;0.50;;
69744;SDS011;57015;50.120;-5.168;2023-05-10T11:38:08;3.67;;;0.47;;
69744;SDS011;57015;50.120;-5.168;2023-05-10T11:40:34;4.28;;;0.43;;
69744;SDS011;57015;50.120;-5.168;2023-05-10T11:43:00;6.57;;;0.40;;
69744;SDS011;57015;50.120;-5.168;2023-05-10T11:45:25;2.37;;;0.40;;
69744;SDS011;57015;50.120;-5.168;2023-05-10T11:47:51;1.70;;;0.40;;
69744;SDS011;57015;50.120;-5.168;2023-05-10T11:50:17;4.27;;;0.43;;
69744;SDS011;57015;50.120;-5.168;2023-05-10T11:52:42;4.28;;;0.60;;
69744;SDS011;57015;50.120;-5.168;2023-05-10T11:55:08;3.13;;;0.50;;
69744;SDS011;57015;50.120;-5.168;2023-05-10T11:57:33;3.77;;;0.40;;
69744;SDS011;57015;50.120;-5.168;2023-05-10T12:00:00;4.63;;;0.98;;
69744;SDS011;57015;50.120;-5.168;2023-05-10T12:02:25;4.57;;;0.40;;
69744;SDS011;57015;50.120;-5.168;2023-05-10T12:04:51;3.65;;;0.38;;
69744;SDS011;57015;50.120;-5.168;2023-05-10T12:07:16;8.07;;;0.43;;
69744;SDS011;57015;50.120;-5.168;2023-05-10T12:10:02;5.57;;;0.43;;
69744;SDS011;57015;50.120;-5.168;2023-05-10T12:12:37;4.32;;;0.68;;
69744;SDS011;57015;50.120;-5.168;2023-05-10T12:15:10;3.97;;;0.40;;
69744;SDS011;57015;50.120;-5.168;2023-05-10T12:17:43;4.28;;;0.28;;
69744;SDS011;57015;50.120;-5.168;2023-05-10T12:20:13;2.73;;;0.30;;
69744;SDS011;57015;50.120;-5.168;2023-05-10T12:22:39;4.72;;;0.47;;
69744;SDS011;57015;50.120;-5.168;2023-05-10T12:25:05;3.70;;;0.47;;
69744;SDS011;57015;50.120;-5.168;2023-05-10T12:27:32;3.70;;;0.50;;
69744;SDS011;57015;50.120;-5.168;2023-05-10T12:29:59;3.50;;;0.50;;
69744;SDS011;57015;50.120;-5.168;2023-05-10T12:32:36;4.57;;;0.20;;
69744;SDS011;57015;50.120;-5.168;2023-05-10T12:35:06;3.72;;;0.47;;
69744;SDS011;57015;50.120;-5.168;2023-05-10T12:37:32;3.75;;;0.40;;
69744;SDS011;57015;50.120;-5.168;2023-05-10T12:40:00;2.90;;;0.30;;
69744;SDS011;57015;50.120;-5.168;2023-05-10T12:42:27;5.07;;;0.75;;
69744;SDS011;57015;50.120;-5.168;2023-05-10T12:44:55;6.60;;;0.50;;
69744;SDS011;57015;50.120;-5.168;2023-05-10T12:47:21;5.37;;;0.50;;
69744;SDS011;57015;50.120;-5.168;2023-05-10T12:49:47;4.85;;;0.50;;
69744;SDS011;57015;50.120;-5.168;2023-05-10T12:52:12;4.63;;;0.60;;
69744;SDS011;57015;50.120;-5.168;2023-05-10T12:54:37;4.83;;;0.73;;
69744;SDS011;57015;50.120;-5.168;2023-05-10T12:57:03;5.37;;;0.73;;
69744;SDS011;57015;50.120;-5.168;2023-05-10T12:59:28;2.73;;;0.47;;
69744;SDS011;57015;50.120;-5.168;2023-05-10T13:01:53;4.43;;;0.73;;
69744;SDS011;57015;50.120;-5.168;2023-05-10T13:04:19;5.97;;;0.50;;
69744;SDS011;57015;50.120;-5.168;2023-05-10T13:06:45;4.68;;;0.52;;
69744;SDS011;57015;50.120;-5.168;2023-05-10T13:09:10;6.40;;;0.80;;
69744;SDS011;57015;50.120;-5.168;2023-05-10T13:11:35;4.07;;;0.50;;
69744;SDS011;57015;50.120;-5.168;2023-05-10T13:14:01;7.38;;;0.63;;
69744;SDS011;57015;50.120;-5.168;2023-05-10T13:16:28;3.90;;;0.47;;
69744;SDS011;57015;50.120;-5.168;2023-05-10T13:18:53;4.22;;;0.50;;
69744;SDS011;57015;50.120;-5.168;2023-05-10T13:21:19;4.73;;;0.50;;
69744;SDS011;57015;50.120;-5.168;2023-05-10T13:23:44;4.40;;;0.50;;
69744;SDS011;57015;50.120;-5.168;2023-05-10T13:26:11;7.03;;;0.70;;
69744;SDS011;57015;50.120;-5.168;2023-05-10T13:28:36;7.13;;;0.57;;
69744;SDS011;57015;50.120;-5.168;2023-05-10T13:31:03;5.15;;;0.80;;
69744;SDS011;57015;50.120;-5.168;2023-05-10T13:33:29;5.40;;;0.43;;
69744;SDS011;57015;50.120;-5.168;2023-05-10T13:35:55;4.83;;;0.60;;
69744;SDS011;57015;50.120;-5.168;2023-05-10T13:38:20;8.00;;;0.70;;
69744;SDS011;57015;50.120;-5.168;2023-05-10T13:40:46;4.33;;;0.50;;
69744;SDS011;57015;50.120;-5.168;2023-05-10T13:43:11;5.50;;;0.80;;
69744;SDS011;57015;50.120;-5.168;2023-05-10T13:45:36;2.80;;;0.35;;
69744;SDS011;57015;50.120;-5.168;2023-05-10T13:48:02;7.57;;;0.90;;
69744;SDS011;57015;50.120;-5.168;2023-05-10T13:50:27;6.67;;;0.73;;
69744;SDS011;57015;50.120;-5.168;2023-05-10T13:52:52;9.13;;;1.10;;
69744;SDS011;57015;50.120;-5.168;2023-05-10T13:55:18;7.07;;;1.00;;
69744;SDS011;57015;50.120;-5.168;2023-05-10T13:57:43;3.67;;;0.43;;
69744;SDS011;57015;50.120;-5.168;2023-05-10T14:00:09;2.20;;;0.50;;
69744;SDS011;57015;50.120;-5.168;2023-05-10T14:02:34;3.90;;;0.40;;
69744;SDS011;57015;50.120;-5.168;2023-05-10T14:05:00;5.33;;;0.60;;
69744;SDS011;57015;50.120;-5.168;2023-05-10T14:07:25;8.25;;;1.02;;
69744;SDS011;57015;50.120;-5.168;2023-05-10T14:09:50;8.02;;;0.85;;
69744;SDS011;57015;50.120;-5.168;2023-05-10T14:12:16;3.43;;;0.60;;
69744;SDS011;57015;50.120;-5.168;2023-05-10T14:14:41;4.87;;;0.80;;
69744;SDS011;57015;50.120;-5.168;2023-05-10T14:17:07;6.23;;;0.70;;
69744;SDS011;57015;50.120;-5.168;2023-05-10T14:19:32;5.47;;;0.80;;
69744;SDS011;57015;50.120;-5.168;2023-05-10T14:21:59;5.28;;;0.50;;
69744;SDS011;57015;50.120;-5.168;2023-05-10T14:24:24;3.38;;;0.63;;
69744;SDS011;57015;50.120;-5.168;2023-05-10T14:26:50;12.03;;;0.50;;
69744;SDS011;57015;50.120;-5.168;2023-05-10T14:29:18;6.38;;;0.77;;
69744;SDS011;57015;50.120;-5.168;2023-05-10T14:31:44;6.37;;;0.90;;
69744;SDS011;57015;50.120;-5.168;2023-05-10T14:34:09;4.60;;;0.70;;
69744;SDS011;57015;50.120;-5.168;2023-05-10T14:36:35;4.25;;;0.80;;
69744;SDS011;57015;50.120;-5.168;2023-05-10T14:39:00;7.40;;;0.70;;
69744;SDS011;57015;50.120;-5.168;2023-05-10T14:41:25;5.17;;;0.60;;
69744;SDS011;57015;50.120;-5.168;2023-05-10T14:43:51;7.27;;;1.00;;
69744;SDS011;57015;50.120;-5.168;2023-05-10T14:46:17;7.35;;;0.80;;
69744;SDS011;57015;50.120;-5.168;2023-05-10T14:48:43;7.17;;;0.70;;
69744;SDS011;57015;50.120;-5.168;2023-05-10T14:51:08;5.13;;;0.77;;
69744;SDS011;57015;50.120;-5.168;2023-05-10T14:53:33;3.00;;;0.57;;
69744;SDS011;57015;50.120;-5.168;2023-05-10T14:55:59;6.45;;;0.63;;
69744;SDS011;57015;50.120;-5.168;2023-05-10T14:58:26;6.88;;;0.90;;
69744;SDS011;57015;50.120;-5.168;2023-05-10T15:00:52;5.40;;;0.60;;
69744;SDS011;57015;50.120;-5.168;2023-05-10T15:03:17;7.10;;;0.70;;
69744;SDS011;57015;50.120;-5.168;2023-05-10T15:05:43;3.93;;;0.40;;
69744;SDS011;57015;50.120;-5.168;2023-05-10T15:08:08;3.50;;;0.50;;